sensor_id;sensor_type;location;lat;lon;timestamp;P1;durP1;ratioP1;P2;durP2;ratioP2
64712;SDS011;51140;45.340;5.980;2023-04-10T00:00:06;5.15;;;2.42;;
64712;SDS011;51140;45.340;5.980;2023-04-10T00:02:33;5.13;;;2.30;;
64712;SDS011;51140;45.340;5.980;2023-04-10T00:05:00;5.75;;;2.22;;
64712;SDS011;51140;45.340;5.980;2023-04-10T00:07:25;4.35;;;2.22;;
64712;SDS011;51140;45.340;5.980;2023-04-10T00:09:51;5.10;;;2.20;;
64712;SDS011;51140;45.340;5.980;2023-04-10T00:12:17;5.05;;;2.03;;
64712;SDS011;51140;45.340;5.980;2023-04-10T00:14:42;5.20;;;2.10;;
64712;SDS011;51140;45.340;5.980;2023-04-10T00:17:07;4.90;;;2.25;;
64712;SDS011;51140;45.340;5.980;2023-04-10T00:19:33;5.97;;;2.20;;
64712;SDS011;51140;45.340;5.980;2023-04-10T00:21:58;5.32;;;2.50;;
64712;SDS011;51140;45.340;5.980;2023-04-10T00:24:24;5.70;;;2.65;;
64712;SDS011;51140;45.340;5.980;2023-04-10T00:26:49;5.28;;;2.33;;
64712;SDS011;51140;45.340;5.980;2023-04-10T00:29:15;5.15;;;2.22;;
64712;SDS011;51140;45.340;5.980;2023-04-10T00:31:40;5.30;;;2.42;;
64712;SDS011;51140;45.340;5.980;2023-04-10T00:34:06;4.47;;;2.42;;
64712;SDS011;51140;45.340;5.980;2023-04-10T00:36:31;5.10;;;2.60;;
64712;SDS011;51140;45.340;5.980;2023-04-10T00:38:57;5.22;;;2.58;;
64712;SDS011;51140;45.340;5.980;2023-04-10T00:41:23;5.30;;;2.20;;
64712;SDS011;51140;45.340;5.980;2023-04-10T00:43:53;5.15;;;2.13;;
64712;SDS011;51140;45.340;5.980;2023-04-10T00:46:25;5.50;;;2.40;;
64712;SDS011;51140;45.340;5.980;2023-04-10T00:48:51;5.22;;;2.20;;
64712;SDS011;51140;45.340;5.980;2023-04-10T00:51:18;5.13;;;2.22;;
64712;SDS011;51140;45.340;5.980;2023-04-10T00:53:46;4.35;;;2.15;;
64712;SDS011;51140;45.340;5.980;2023-04-10T00:56:12;5.78;;;2.33;;
64712;SDS011;51140;45.340;5.980;2023-04-10T00:58:38;5.15;;;2.53;;
64712;SDS011;51140;45.340;5.980;2023-04-10T01:01:03;7.13;;;2.33;;
64712;SDS011;51140;45.340;5.980;2023-04-10T01:03:30;4.75;;;2.30;;
64712;SDS011;51140;45.340;5.980;2023-04-10T01:06:07;4.95;;;2.28;;
64712;SDS011;51140;45.340;5.980;2023-04-10T01:08:46;5.13;;;2.40;;
64712;SDS011;51140;45.340;5.980;2023-04-10T01:11:29;5.53;;;2.45;;
64712;SDS011;51140;45.340;5.980;2023-04-10T01:14:00;4.95;;;2.22;;
64712;SDS011;51140;45.340;5.980;2023-04-10T01:16:37;6.45;;;2.55;;
64712;SDS011;51140;45.340;5.980;2023-04-10T01:27:37;5.07;;;2.30;;
64712;SDS011;51140;45.340;5.980;2023-04-10T01:30:11;5.72;;;2.67;;
64712;SDS011;51140;45.340;5.980;2023-04-10T01:32:40;6.30;;;2.35;;
64712;SDS011;51140;45.340;5.980;2023-04-10T01:35:08;6.00;;;2.05;;
64712;SDS011;51140;45.340;5.980;2023-04-10T01:37:36;4.88;;;2.00;;
64712;SDS011;51140;45.340;5.980;2023-04-10T01:40:07;4.90;;;2.15;;
64712;SDS011;51140;45.340;5.980;2023-04-10T01:42:39;4.53;;;2.17;;
64712;SDS011;51140;45.340;5.980;2023-04-10T01:45:08;7.38;;;2.40;;
64712;SDS011;51140;45.340;5.980;2023-04-10T01:47:40;9.07;;;2.60;;
64712;SDS011;51140;45.340;5.980;2023-04-10T01:50:07;5.15;;;2.15;;
64712;SDS011;51140;45.340;5.980;2023-04-10T01:52:33;5.13;;;2.20;;
64712;SDS011;51140;45.340;5.980;2023-04-10T01:55:00;5.90;;;2.10;;
64712;SDS011;51140;45.340;5.980;2023-04-10T01:57:27;4.80;;;2.22;;
64712;SDS011;51140;45.340;5.980;2023-04-10T01:59:55;5.35;;;2.42;;
64712;SDS011;51140;45.340;5.980;2023-04-10T02:02:21;4.60;;;2.13;;
64712;SDS011;51140;45.340;5.980;2023-04-10T02:04:46;5.47;;;2.40;;
64712;SDS011;51140;45.340;5.980;2023-04-10T02:13:06;5.55;;;2.10;;
64712;SDS011;51140;45.340;5.980;2023-04-10T02:15:35;4.68;;;2.35;;
64712;SDS011;51140;45.340;5.980;2023-04-10T02:18:04;4.60;;;2.13;;
64712;SDS011;51140;45.340;5.980;2023-04-10T02:20:30;4.93;;;2.15;;
64712;SDS011;51140;45.340;5.980;2023-04-10T02:22:57;6.85;;;2.20;;
64712;SDS011;51140;45.340;5.980;2023-04-10T02:25:29;5.32;;;2.13;;
64712;SDS011;51140;45.340;5.980;2023-04-10T02:27:55;4.28;;;2.10;;
64712;SDS011;51140;45.340;5.980;2023-04-10T02:30:21;4.22;;;2.00;;
64712;SDS011;51140;45.340;5.980;2023-04-10T02:32:47;4.40;;;2.10;;
64712;SDS011;51140;45.340;5.980;2023-04-10T02:35:12;4.50;;;2.05;;
64712;SDS011;51140;45.340;5.980;2023-04-10T02:37:38;6.80;;;2.92;;
64712;SDS011;51140;45.340;5.980;2023-04-10T02:40:03;6.32;;;3.08;;
64712;SDS011;51140;45.340;5.980;2023-04-10T02:42:29;8.00;;;3.47;;
64712;SDS011;51140;45.340;5.980;2023-04-10T02:44:55;6.82;;;3.67;;
64712;SDS011;51140;45.340;5.980;2023-04-10T02:47:20;7.95;;;3.72;;
64712;SDS011;51140;45.340;5.980;2023-04-10T02:49:45;6.60;;;2.70;;
64712;SDS011;51140;45.340;5.980;2023-04-10T02:52:12;5.22;;;2.60;;
64712;SDS011;51140;45.340;5.980;2023-04-10T02:54:37;4.75;;;2.05;;
64712;SDS011;51140;45.340;5.980;2023-04-10T02:57:04;6.85;;;2.60;;
64712;SDS011;51140;45.340;5.980;2023-04-10T02:59:29;5.63;;;2.78;;
64712;SDS011;51140;45.340;5.980;2023-04-10T03:01:55;7.60;;;2.58;;
64712;SDS011;51140;45.340;5.980;2023-04-10T03:04:20;5.85;;;2.53;;
64712;SDS011;51140;45.340;5.980;2023-04-10T03:06:46;5.22;;;2.45;;
64712;SDS011;51140;45.340;5.980;2023-04-10T03:09:11;4.85;;;2.30;;
64712;SDS011;51140;45.340;5.980;2023-04-10T03:11:37;5.15;;;2.30;;
64712;SDS011;51140;45.340;5.980;2023-04-10T03:14:03;4.72;;;2.22;;
64712;SDS011;51140;45.340;5.980;2023-04-10T03:16:28;5.47;;;2.47;;
64712;SDS011;51140;45.340;5.980;2023-04-10T03:18:54;4.63;;;2.10;;
64712;SDS011;51140;45.340;5.980;2023-04-10T03:21:19;5.57;;;2.65;;
64712;SDS011;51140;45.340;5.980;2023-04-10T03:23:45;5.47;;;2.30;;
64712;SDS011;51140;45.340;5.980;2023-04-10T03:26:10;5.35;;;2.50;;
64712;SDS011;51140;45.340;5.980;2023-04-10T03:28:36;5.90;;;2.30;;
64712;SDS011;51140;45.340;5.980;2023-04-10T03:31:02;4.97;;;2.35;;
64712;SDS011;51140;45.340;5.980;2023-04-10T03:33:28;5.70;;;2.40;;
64712;SDS011;51140;45.340;5.980;2023-04-10T03:35:53;27.17;;;14.40;;
64712;SDS011;51140;45.340;5.980;2023-04-10T03:38:19;10.35;;;6.32;;
64712;SDS011;51140;45.340;5.980;2023-04-10T03:40:44;5.35;;;2.70;;
64712;SDS011;51140;45.340;5.980;2023-04-10T03:43:09;5.60;;;2.70;;
64712;SDS011;51140;45.340;5.980;2023-04-10T03:45:35;5.70;;;2.88;;
64712;SDS011;51140;45.340;5.980;2023-04-10T03:48:00;6.35;;;3.10;;
64712;SDS011;51140;45.340;5.980;2023-04-10T03:50:26;5.97;;;2.30;;
64712;SDS011;51140;45.340;5.980;2023-04-10T03:52:51;5.78;;;2.40;;
64712;SDS011;51140;45.340;5.980;2023-04-10T03:55:16;5.18;;;2.30;;
64712;SDS011;51140;45.340;5.980;2023-04-10T03:57:43;5.18;;;2.35;;
64712;SDS011;51140;45.340;5.980;2023-04-10T04:00:10;5.57;;;2.55;;
64712;SDS011;51140;45.340;5.980;2023-04-10T04:02:36;4.85;;;2.45;;
64712;SDS011;51140;45.340;5.980;2023-04-10T04:05:02;4.93;;;2.50;;
64712;SDS011;51140;45.340;5.980;2023-04-10T04:07:28;5.32;;;2.60;;
64712;SDS011;51140;45.340;5.980;2023-04-10T04:09:53;5.85;;;2.45;;
64712;SDS011;51140;45.340;5.980;2023-04-10T04:12:19;6.72;;;2.20;;
64712;SDS011;51140;45.340;5.980;2023-04-10T04:14:44;5.68;;;2.55;;
64712;SDS011;51140;45.340;5.980;2023-04-10T04:17:10;5.57;;;2.47;;
64712;SDS011;51140;45.340;5.980;2023-04-10T04:19:35;5.30;;;2.60;;
64712;SDS011;51140;45.340;5.980;2023-04-10T04:22:01;5.88;;;2.97;;
64712;SDS011;51140;45.340;5.980;2023-04-10T04:24:26;5.53;;;2.53;;
64712;SDS011;51140;45.340;5.980;2023-04-10T04:26:51;5.43;;;2.33;;
64712;SDS011;51140;45.340;5.980;2023-04-10T04:29:17;7.25;;;2.30;;
64712;SDS011;51140;45.340;5.980;2023-04-10T04:31:42;5.78;;;2.83;;
64712;SDS011;51140;45.340;5.980;2023-04-10T04:34:08;4.30;;;2.28;;
64712;SDS011;51140;45.340;5.980;2023-04-10T04:36:33;5.03;;;2.40;;
64712;SDS011;51140;45.340;5.980;2023-04-10T04:38:58;4.53;;;2.40;;
64712;SDS011;51140;45.340;5.980;2023-04-10T04:41:24;4.65;;;2.30;;
64712;SDS011;51140;45.340;5.980;2023-04-10T04:43:49;6.53;;;2.50;;
64712;SDS011;51140;45.340;5.980;2023-04-10T04:46:17;7.05;;;2.38;;
64712;SDS011;51140;45.340;5.980;2023-04-10T04:48:42;4.82;;;2.15;;
64712;SDS011;51140;45.340;5.980;2023-04-10T04:51:08;5.97;;;2.40;;
64712;SDS011;51140;45.340;5.980;2023-04-10T04:53:33;4.95;;;2.25;;
64712;SDS011;51140;45.340;5.980;2023-04-10T04:55:58;5.45;;;2.63;;
64712;SDS011;51140;45.340;5.980;2023-04-10T04:58:24;5.20;;;2.25;;
64712;SDS011;51140;45.340;5.980;2023-04-10T05:00:52;5.70;;;2.10;;
64712;SDS011;51140;45.340;5.980;2023-04-10T05:03:19;5.60;;;2.45;;
64712;SDS011;51140;45.340;5.980;2023-04-10T05:05:45;5.32;;;2.35;;
64712;SDS011;51140;45.340;5.980;2023-04-10T05:08:10;5.63;;;2.38;;
64712;SDS011;51140;45.340;5.980;2023-04-10T05:10:36;5.28;;;2.53;;
64712;SDS011;51140;45.340;5.980;2023-04-10T05:13:01;5.30;;;2.40;;
64712;SDS011;51140;45.340;5.980;2023-04-10T05:15:26;4.47;;;2.10;;
64712;SDS011;51140;45.340;5.980;2023-04-10T05:17:52;6.57;;;2.72;;
64712;SDS011;51140;45.340;5.980;2023-04-10T05:20:18;5.38;;;2.40;;
64712;SDS011;51140;45.340;5.980;2023-04-10T05:22:43;5.25;;;2.50;;
64712;SDS011;51140;45.340;5.980;2023-04-10T05:25:09;6.68;;;2.10;;
64712;SDS011;51140;45.340;5.980;2023-04-10T05:27:35;5.47;;;2.40;;
64712;SDS011;51140;45.340;5.980;2023-04-10T05:30:00;4.45;;;2.20;;
64712;SDS011;51140;45.340;5.980;2023-04-10T05:32:27;5.53;;;2.60;;
64712;SDS011;51140;45.340;5.980;2023-04-10T05:34:53;12.77;;;4.88;;
64712;SDS011;51140;45.340;5.980;2023-04-10T05:37:18;13.57;;;6.57;;
64712;SDS011;51140;45.340;5.980;2023-04-10T05:39:43;11.45;;;5.93;;
64712;SDS011;51140;45.340;5.980;2023-04-10T05:42:09;10.80;;;6.40;;
64712;SDS011;51140;45.340;5.980;2023-04-10T05:44:34;9.18;;;5.45;;
64712;SDS011;51140;45.340;5.980;2023-04-10T05:47:00;6.18;;;3.30;;
64712;SDS011;51140;45.340;5.980;2023-04-10T05:49:25;5.65;;;2.50;;
64712;SDS011;51140;45.340;5.980;2023-04-10T05:51:50;6.10;;;2.60;;
64712;SDS011;51140;45.340;5.980;2023-04-10T05:54:17;4.65;;;2.28;;
64712;SDS011;51140;45.340;5.980;2023-04-10T05:56:43;5.53;;;2.50;;
64712;SDS011;51140;45.340;5.980;2023-04-10T05:59:08;8.10;;;2.72;;
64712;SDS011;51140;45.340;5.980;2023-04-10T06:01:34;5.85;;;2.38;;
64712;SDS011;51140;45.340;5.980;2023-04-10T06:03:59;5.50;;;2.40;;
64712;SDS011;51140;45.340;5.980;2023-04-10T06:06:25;5.07;;;2.38;;
64712;SDS011;51140;45.340;5.980;2023-04-10T06:08:51;4.70;;;2.47;;
64712;SDS011;51140;45.340;5.980;2023-04-10T06:11:16;5.00;;;2.30;;
64712;SDS011;51140;45.340;5.980;2023-04-10T06:13:42;5.07;;;2.30;;
64712;SDS011;51140;45.340;5.980;2023-04-10T06:16:07;5.55;;;2.90;;
64712;SDS011;51140;45.340;5.980;2023-04-10T06:18:33;7.30;;;3.60;;
64712;SDS011;51140;45.340;5.980;2023-04-10T06:20:59;6.13;;;3.17;;
64712;SDS011;51140;45.340;5.980;2023-04-10T06:23:26;7.75;;;2.90;;
64712;SDS011;51140;45.340;5.980;2023-04-10T06:25:52;5.25;;;2.58;;
64712;SDS011;51140;45.340;5.980;2023-04-10T06:28:18;5.25;;;2.63;;
64712;SDS011;51140;45.340;5.980;2023-04-10T06:30:44;4.78;;;2.63;;
64712;SDS011;51140;45.340;5.980;2023-04-10T06:33:09;6.28;;;3.20;;
64712;SDS011;51140;45.340;5.980;2023-04-10T06:35:35;5.78;;;2.30;;
64712;SDS011;51140;45.340;5.980;2023-04-10T06:38:01;5.18;;;2.47;;
64712;SDS011;51140;45.340;5.980;2023-04-10T06:40:27;7.20;;;3.10;;
64712;SDS011;51140;45.340;5.980;2023-04-10T06:42:53;6.28;;;2.63;;
64712;SDS011;51140;45.340;5.980;2023-04-10T06:45:19;11.25;;;2.97;;
64712;SDS011;51140;45.340;5.980;2023-04-10T06:47:45;6.18;;;2.80;;
64712;SDS011;51140;45.340;5.980;2023-04-10T06:50:10;6.55;;;3.20;;
64712;SDS011;51140;45.340;5.980;2023-04-10T06:52:36;6.15;;;2.95;;
64712;SDS011;51140;45.340;5.980;2023-04-10T06:55:01;5.00;;;2.60;;
64712;SDS011;51140;45.340;5.980;2023-04-10T06:57:27;5.32;;;2.38;;
64712;SDS011;51140;45.340;5.980;2023-04-10T06:59:52;7.35;;;2.47;;
64712;SDS011;51140;45.340;5.980;2023-04-10T07:02:18;9.50;;;2.83;;
64712;SDS011;51140;45.340;5.980;2023-04-10T07:04:44;12.48;;;2.58;;
64712;SDS011;51140;45.340;5.980;2023-04-10T07:07:09;12.35;;;3.55;;
64712;SDS011;51140;45.340;5.980;2023-04-10T07:09:37;5.65;;;2.83;;
64712;SDS011;51140;45.340;5.980;2023-04-10T07:12:03;6.55;;;3.65;;
64712;SDS011;51140;45.340;5.980;2023-04-10T07:14:28;9.07;;;3.17;;
64712;SDS011;51140;45.340;5.980;2023-04-10T07:16:54;5.00;;;2.50;;
64712;SDS011;51140;45.340;5.980;2023-04-10T07:19:19;5.75;;;2.60;;
64712;SDS011;51140;45.340;5.980;2023-04-10T07:21:47;6.35;;;2.33;;
64712;SDS011;51140;45.340;5.980;2023-04-10T07:24:14;5.57;;;2.30;;
64712;SDS011;51140;45.340;5.980;2023-04-10T07:26:41;10.10;;;2.40;;
64712;SDS011;51140;45.340;5.980;2023-04-10T07:29:06;11.93;;;3.20;;
64712;SDS011;51140;45.340;5.980;2023-04-10T07:31:33;5.43;;;2.40;;
64712;SDS011;51140;45.340;5.980;2023-04-10T07:33:58;5.53;;;2.40;;
64712;SDS011;51140;45.340;5.980;2023-04-10T07:36:24;4.32;;;2.28;;
64712;SDS011;51140;45.340;5.980;2023-04-10T07:38:50;6.95;;;2.70;;
64712;SDS011;51140;45.340;5.980;2023-04-10T07:41:15;7.00;;;2.72;;
64712;SDS011;51140;45.340;5.980;2023-04-10T07:43:41;5.47;;;2.47;;
64712;SDS011;51140;45.340;5.980;2023-04-10T07:46:06;5.13;;;2.40;;
64712;SDS011;51140;45.340;5.980;2023-04-10T07:48:31;5.20;;;2.38;;
64712;SDS011;51140;45.340;5.980;2023-04-10T07:50:57;5.35;;;2.50;;
64712;SDS011;51140;45.340;5.980;2023-04-10T07:53:22;5.55;;;2.63;;
64712;SDS011;51140;45.340;5.980;2023-04-10T07:55:48;5.68;;;2.58;;
64712;SDS011;51140;45.340;5.980;2023-04-10T07:58:13;5.72;;;2.88;;
64712;SDS011;51140;45.340;5.980;2023-04-10T08:00:39;6.72;;;3.15;;
64712;SDS011;51140;45.340;5.980;2023-04-10T08:03:05;5.85;;;2.90;;
64712;SDS011;51140;45.340;5.980;2023-04-10T08:05:31;5.93;;;2.88;;
64712;SDS011;51140;45.340;5.980;2023-04-10T08:07:56;6.30;;;3.45;;
64712;SDS011;51140;45.340;5.980;2023-04-10T08:10:22;6.78;;;3.65;;
64712;SDS011;51140;45.340;5.980;2023-04-10T08:12:47;7.53;;;3.08;;
64712;SDS011;51140;45.340;5.980;2023-04-10T08:15:13;7.18;;;2.97;;
64712;SDS011;51140;45.340;5.980;2023-04-10T08:17:38;5.85;;;2.95;;
64712;SDS011;51140;45.340;5.980;2023-04-10T08:20:04;6.55;;;2.97;;
64712;SDS011;51140;45.340;5.980;2023-04-10T08:22:30;6.20;;;3.00;;
64712;SDS011;51140;45.340;5.980;2023-04-10T08:24:55;5.72;;;2.47;;
64712;SDS011;51140;45.340;5.980;2023-04-10T08:27:21;5.43;;;2.58;;
64712;SDS011;51140;45.340;5.980;2023-04-10T08:29:46;6.30;;;2.78;;
64712;SDS011;51140;45.340;5.980;2023-04-10T08:32:12;5.95;;;2.33;;
64712;SDS011;51140;45.340;5.980;2023-04-10T08:34:37;5.45;;;2.30;;
64712;SDS011;51140;45.340;5.980;2023-04-10T08:37:06;5.47;;;2.20;;
64712;SDS011;51140;45.340;5.980;2023-04-10T08:39:34;6.00;;;2.67;;
64712;SDS011;51140;45.340;5.980;2023-04-10T08:42:00;5.93;;;2.33;;
64712;SDS011;51140;45.340;5.980;2023-04-10T08:44:26;7.03;;;2.60;;
64712;SDS011;51140;45.340;5.980;2023-04-10T08:46:51;4.47;;;2.20;;
64712;SDS011;51140;45.340;5.980;2023-04-10T08:49:23;4.88;;;2.42;;
64712;SDS011;51140;45.340;5.980;2023-04-10T08:51:53;3.22;;;1.80;;
64712;SDS011;51140;45.340;5.980;2023-04-10T08:54:27;4.20;;;2.00;;
64712;SDS011;51140;45.340;5.980;2023-04-10T08:56:54;5.07;;;2.10;;
64712;SDS011;51140;45.340;5.980;2023-04-10T08:59:20;6.03;;;2.42;;
64712;SDS011;51140;45.340;5.980;2023-04-10T09:01:46;3.70;;;1.90;;
64712;SDS011;51140;45.340;5.980;2023-04-10T09:04:12;4.95;;;2.15;;
64712;SDS011;51140;45.340;5.980;2023-04-10T09:06:38;3.83;;;1.80;;
64712;SDS011;51140;45.340;5.980;2023-04-10T09:09:05;4.10;;;1.83;;
64712;SDS011;51140;45.340;5.980;2023-04-10T09:16:47;5.00;;;1.90;;
64712;SDS011;51140;45.340;5.980;2023-04-10T09:19:13;4.90;;;2.10;;
64712;SDS011;51140;45.340;5.980;2023-04-10T09:21:53;6.10;;;2.00;;
64712;SDS011;51140;45.340;5.980;2023-04-10T09:24:19;2.97;;;1.73;;
64712;SDS011;51140;45.340;5.980;2023-04-10T09:26:45;3.20;;;1.63;;
64712;SDS011;51140;45.340;5.980;2023-04-10T09:29:10;2.83;;;1.50;;
64712;SDS011;51140;45.340;5.980;2023-04-10T09:31:36;3.53;;;1.60;;
64712;SDS011;51140;45.340;5.980;2023-04-10T09:34:12;3.22;;;1.60;;
64712;SDS011;51140;45.340;5.980;2023-04-10T09:36:38;3.60;;;1.60;;
64712;SDS011;51140;45.340;5.980;2023-04-10T09:39:33;2.75;;;1.55;;
64712;SDS011;51140;45.340;5.980;2023-04-10T09:42:01;3.20;;;1.60;;
64712;SDS011;51140;45.340;5.980;2023-04-10T09:44:28;3.95;;;1.75;;
64712;SDS011;51140;45.340;5.980;2023-04-10T09:49:45;2.88;;;1.50;;
64712;SDS011;51140;45.340;5.980;2023-04-10T09:52:16;4.63;;;1.88;;
64712;SDS011;51140;45.340;5.980;2023-04-10T09:54:43;3.58;;;1.60;;
64712;SDS011;51140;45.340;5.980;2023-04-10T09:57:10;2.90;;;1.55;;
64712;SDS011;51140;45.340;5.980;2023-04-10T09:59:38;3.35;;;1.60;;
64712;SDS011;51140;45.340;5.980;2023-04-10T10:02:04;4.32;;;1.75;;
64712;SDS011;51140;45.340;5.980;2023-04-10T10:04:31;3.58;;;1.75;;
64712;SDS011;51140;45.340;5.980;2023-04-10T10:06:57;3.90;;;1.40;;
64712;SDS011;51140;45.340;5.980;2023-04-10T10:09:23;4.70;;;1.73;;
64712;SDS011;51140;45.340;5.980;2023-04-10T10:11:50;3.95;;;1.70;;
64712;SDS011;51140;45.340;5.980;2023-04-10T10:14:16;4.10;;;2.00;;
64712;SDS011;51140;45.340;5.980;2023-04-10T10:16:45;4.57;;;1.90;;
64712;SDS011;51140;45.340;5.980;2023-04-10T10:19:23;3.75;;;1.70;;
64712;SDS011;51140;45.340;5.980;2023-04-10T10:21:54;3.55;;;1.65;;
64712;SDS011;51140;45.340;5.980;2023-04-10T10:24:21;3.58;;;1.95;;
64712;SDS011;51140;45.340;5.980;2023-04-10T10:26:47;2.88;;;1.25;;
64712;SDS011;51140;45.340;5.980;2023-04-10T10:29:15;3.65;;;1.75;;
64712;SDS011;51140;45.340;5.980;2023-04-10T10:31:42;3.00;;;1.50;;
64712;SDS011;51140;45.340;5.980;2023-04-10T10:34:10;3.30;;;1.67;;
64712;SDS011;51140;45.340;5.980;2023-04-10T10:36:35;3.60;;;1.40;;
64712;SDS011;51140;45.340;5.980;2023-04-10T10:44:57;2.63;;;1.40;;
64712;SDS011;51140;45.340;5.980;2023-04-10T10:47:31;3.50;;;1.58;;
64712;SDS011;51140;45.340;5.980;2023-04-10T10:49:59;5.32;;;1.70;;
64712;SDS011;51140;45.340;5.980;2023-04-10T10:57:46;4.20;;;1.95;;
64712;SDS011;51140;45.340;5.980;2023-04-10T11:00:18;4.75;;;2.30;;
64712;SDS011;51140;45.340;5.980;2023-04-10T11:02:53;4.65;;;2.30;;
64712;SDS011;51140;45.340;5.980;2023-04-10T11:08:15;3.53;;;1.65;;
64712;SDS011;51140;45.340;5.980;2023-04-10T11:13:32;3.95;;;1.70;;
64712;SDS011;51140;45.340;5.980;2023-04-10T11:15:59;4.60;;;2.00;;
64712;SDS011;51140;45.340;5.980;2023-04-10T11:21:10;3.60;;;1.70;;
64712;SDS011;51140;45.340;5.980;2023-04-10T11:23:37;5.03;;;2.00;;
64712;SDS011;51140;45.340;5.980;2023-04-10T11:29:02;3.70;;;1.70;;
64712;SDS011;51140;45.340;5.980;2023-04-10T11:34:21;4.03;;;1.73;;
64712;SDS011;51140;45.340;5.980;2023-04-10T11:36:46;4.38;;;1.95;;
64712;SDS011;51140;45.340;5.980;2023-04-10T11:39:12;4.15;;;1.67;;
64712;SDS011;51140;45.340;5.980;2023-04-10T11:41:42;7.32;;;2.40;;
64712;SDS011;51140;45.340;5.980;2023-04-10T11:44:13;4.45;;;1.90;;
64712;SDS011;51140;45.340;5.980;2023-04-10T11:46:41;2.75;;;1.60;;
64712;SDS011;51140;45.340;5.980;2023-04-10T11:49:10;4.00;;;1.67;;
64712;SDS011;51140;45.340;5.980;2023-04-10T11:51:36;3.08;;;1.60;;
64712;SDS011;51140;45.340;5.980;2023-04-10T11:54:06;3.95;;;1.50;;
64712;SDS011;51140;45.340;5.980;2023-04-10T11:56:32;4.50;;;1.70;;
64712;SDS011;51140;45.340;5.980;2023-04-10T11:58:59;4.13;;;1.73;;
64712;SDS011;51140;45.340;5.980;2023-04-10T12:01:26;4.57;;;1.50;;
64712;SDS011;51140;45.340;5.980;2023-04-10T12:03:52;5.60;;;1.67;;
64712;SDS011;51140;45.340;5.980;2023-04-10T12:06:17;3.78;;;1.58;;
64712;SDS011;51140;45.340;5.980;2023-04-10T12:08:46;2.92;;;1.40;;
64712;SDS011;51140;45.340;5.980;2023-04-10T12:11:19;4.20;;;1.67;;
64712;SDS011;51140;45.340;5.980;2023-04-10T12:13:46;3.70;;;1.48;;
64712;SDS011;51140;45.340;5.980;2023-04-10T12:16:12;3.55;;;1.60;;
64712;SDS011;51140;45.340;5.980;2023-04-10T12:18:38;5.78;;;1.70;;
64712;SDS011;51140;45.340;5.980;2023-04-10T12:21:05;4.22;;;1.60;;
64712;SDS011;51140;45.340;5.980;2023-04-10T12:23:31;3.65;;;1.60;;
64712;SDS011;51140;45.340;5.980;2023-04-10T12:28:52;2.65;;;1.40;;
64712;SDS011;51140;45.340;5.980;2023-04-10T12:31:25;3.17;;;1.50;;
64712;SDS011;51140;45.340;5.980;2023-04-10T12:33:54;3.28;;;1.42;;
64712;SDS011;51140;45.340;5.980;2023-04-10T12:36:23;4.38;;;1.90;;
64712;SDS011;51140;45.340;5.980;2023-04-10T12:38:59;4.13;;;1.88;;
64712;SDS011;51140;45.340;5.980;2023-04-10T12:41:27;5.03;;;2.03;;
64712;SDS011;51140;45.340;5.980;2023-04-10T12:44:16;4.60;;;1.90;;
64712;SDS011;51140;45.340;5.980;2023-04-10T12:46:40;4.63;;;1.77;;
64712;SDS011;51140;45.340;5.980;2023-04-10T12:54:09;3.13;;;1.50;;
64712;SDS011;51140;45.340;5.980;2023-04-10T12:56:39;4.50;;;1.77;;
64712;SDS011;51140;45.340;5.980;2023-04-10T12:59:08;3.97;;;1.80;;
64712;SDS011;51140;45.340;5.980;2023-04-10T13:01:36;3.85;;;1.80;;
64712;SDS011;51140;45.340;5.980;2023-04-10T13:04:02;3.50;;;1.80;;
64712;SDS011;51140;45.340;5.980;2023-04-10T13:06:28;5.75;;;1.60;;
64712;SDS011;51140;45.340;5.980;2023-04-10T13:08:53;3.85;;;1.65;;
64712;SDS011;51140;45.340;5.980;2023-04-10T13:11:19;3.58;;;1.63;;
64712;SDS011;51140;45.340;5.980;2023-04-10T13:13:47;4.10;;;1.77;;
64712;SDS011;51140;45.340;5.980;2023-04-10T13:16:12;3.03;;;1.40;;
64712;SDS011;51140;45.340;5.980;2023-04-10T13:18:38;2.90;;;1.35;;
64712;SDS011;51140;45.340;5.980;2023-04-10T13:21:03;2.00;;;1.20;;
64712;SDS011;51140;45.340;5.980;2023-04-10T13:23:29;2.83;;;1.30;;
64712;SDS011;51140;45.340;5.980;2023-04-10T13:25:54;3.58;;;1.55;;
64712;SDS011;51140;45.340;5.980;2023-04-10T13:28:21;4.18;;;1.60;;
64712;SDS011;51140;45.340;5.980;2023-04-10T13:30:46;2.53;;;1.30;;
64712;SDS011;51140;45.340;5.980;2023-04-10T13:33:12;3.42;;;1.33;;
64712;SDS011;51140;45.340;5.980;2023-04-10T13:35:38;4.35;;;1.30;;
64712;SDS011;51140;45.340;5.980;2023-04-10T13:38:06;5.15;;;1.50;;
64712;SDS011;51140;45.340;5.980;2023-04-10T13:40:33;3.80;;;1.27;;
64712;SDS011;51140;45.340;5.980;2023-04-10T13:42:58;2.30;;;1.10;;
64712;SDS011;51140;45.340;5.980;2023-04-10T13:45:24;3.75;;;1.30;;
64712;SDS011;51140;45.340;5.980;2023-04-10T13:47:49;3.67;;;1.20;;
64712;SDS011;51140;45.340;5.980;2023-04-10T13:50:15;1.95;;;1.08;;
64712;SDS011;51140;45.340;5.980;2023-04-10T13:52:40;3.50;;;1.20;;
64712;SDS011;51140;45.340;5.980;2023-04-10T13:55:05;2.63;;;1.10;;
64712;SDS011;51140;45.340;5.980;2023-04-10T13:57:31;2.17;;;1.10;;
64712;SDS011;51140;45.340;5.980;2023-04-10T13:59:58;2.85;;;1.30;;
64712;SDS011;51140;45.340;5.980;2023-04-10T14:02:23;3.00;;;1.30;;
64712;SDS011;51140;45.340;5.980;2023-04-10T14:04:49;2.92;;;1.13;;
64712;SDS011;51140;45.340;5.980;2023-04-10T14:07:15;2.60;;;1.20;;
64712;SDS011;51140;45.340;5.980;2023-04-10T14:09:41;5.45;;;1.13;;
64712;SDS011;51140;45.340;5.980;2023-04-10T14:12:06;3.33;;;1.08;;
64712;SDS011;51140;45.340;5.980;2023-04-10T14:14:32;2.65;;;1.20;;
64712;SDS011;51140;45.340;5.980;2023-04-10T14:16:57;1.75;;;1.00;;
64712;SDS011;51140;45.340;5.980;2023-04-10T14:19:23;2.67;;;1.33;;
64712;SDS011;51140;45.340;5.980;2023-04-10T14:21:48;3.00;;;1.30;;
64712;SDS011;51140;45.340;5.980;2023-04-10T14:24:13;2.67;;;1.20;;
64712;SDS011;51140;45.340;5.980;2023-04-10T14:26:39;3.47;;;1.02;;
64712;SDS011;51140;45.340;5.980;2023-04-10T14:29:04;3.00;;;1.27;;
64712;SDS011;51140;45.340;5.980;2023-04-10T14:31:32;4.95;;;1.48;;
64712;SDS011;51140;45.340;5.980;2023-04-10T14:33:58;3.72;;;1.30;;
64712;SDS011;51140;45.340;5.980;2023-04-10T14:36:23;2.78;;;1.20;;
64712;SDS011;51140;45.340;5.980;2023-04-10T14:38:48;3.45;;;1.42;;
64712;SDS011;51140;45.340;5.980;2023-04-10T14:41:14;2.75;;;1.20;;
64712;SDS011;51140;45.340;5.980;2023-04-10T14:43:40;4.07;;;1.38;;
64712;SDS011;51140;45.340;5.980;2023-04-10T14:46:05;3.40;;;1.20;;
64712;SDS011;51140;45.340;5.980;2023-04-10T14:48:31;2.10;;;1.05;;
64712;SDS011;51140;45.340;5.980;2023-04-10T14:50:56;2.63;;;1.20;;
64712;SDS011;51140;45.340;5.980;2023-04-10T14:53:23;2.75;;;1.20;;
64712;SDS011;51140;45.340;5.980;2023-04-10T14:55:48;4.63;;;1.58;;
64712;SDS011;51140;45.340;5.980;2023-04-10T14:58:13;5.50;;;1.38;;
64712;SDS011;51140;45.340;5.980;2023-04-10T15:00:39;3.70;;;1.55;;
64712;SDS011;51140;45.340;5.980;2023-04-10T15:03:04;3.88;;;1.42;;
64712;SDS011;51140;45.340;5.980;2023-04-10T15:05:30;4.00;;;1.10;;
64712;SDS011;51140;45.340;5.980;2023-04-10T15:07:56;3.17;;;1.30;;
64712;SDS011;51140;45.340;5.980;2023-04-10T15:10:21;4.32;;;1.45;;
64712;SDS011;51140;45.340;5.980;2023-04-10T15:12:47;4.75;;;1.63;;
64712;SDS011;51140;45.340;5.980;2023-04-10T15:15:12;3.35;;;1.75;;
64712;SDS011;51140;45.340;5.980;2023-04-10T15:17:37;2.97;;;1.20;;
64712;SDS011;51140;45.340;5.980;2023-04-10T15:20:03;5.88;;;2.97;;
64712;SDS011;51140;45.340;5.980;2023-04-10T15:22:29;5.38;;;1.65;;
64712;SDS011;51140;45.340;5.980;2023-04-10T15:24:54;5.07;;;2.10;;
64712;SDS011;51140;45.340;5.980;2023-04-10T15:27:20;7.03;;;2.15;;
64712;SDS011;51140;45.340;5.980;2023-04-10T15:29:45;3.78;;;1.42;;
64712;SDS011;51140;45.340;5.980;2023-04-10T15:32:11;4.00;;;1.30;;
64712;SDS011;51140;45.340;5.980;2023-04-10T15:34:36;4.30;;;1.25;;
64712;SDS011;51140;45.340;5.980;2023-04-10T15:37:02;3.42;;;1.40;;
64712;SDS011;51140;45.340;5.980;2023-04-10T15:39:27;4.03;;;1.70;;